Time;durP1;ratioP1;P1;durP2;ratioP2;P2;SDS_P1;SDS_P2;PMS_P1;PMS_P2;Temp;Humidity;BMP_temperature;BMP_pressure;BME280_temperature;BME280_humidity;BME280_pressure;Samples;Min_cycle;Max_cycle;Signal;HPM_P1;HPM_P2
2022/05/05 00:02:07;;;;;;;2.60;2.40;;;;;;;;;;5122018;28;20228;-55
2022/05/05 00:04:34;;;;;;;2.10;2.00;;;;;;;;;;5121459;28;20271;-55
2022/05/05 00:07:02;;;;;;;2.30;2.20;;;;;;;;;;5121265;28;20210;-55
2022/05/05 00:09:30;;;;;;;2.35;2.20;;;;;;;;;;5121196;28;20203;-55
2022/05/05 00:14:43;;;;;;;2.20;2.00;;;;;;;;;;5121416;28;20616;-55
2022/05/05 00:17:11;;;;;;;2.22;2.13;;;;;;;;;;5121089;28;20203;-55
2022/05/05 00:19:41;;;;;;;2.40;2.20;;;;;;;;;;5121174;28;20213;-55
2022/05/05 00:22:10;;;;;;;2.60;2.40;;;;;;;;;;5120456;28;20203;-55
2022/05/05 00:24:38;;;;;;;2.55;2.35;;;;;;;;;;5121206;28;20223;-55
2022/05/05 00:27:07;;;;;;;2.22;2.05;;;;;;;;;;5120996;28;20257;-55
2022/05/05 00:29:35;;;;;;;2.50;2.30;;;;;;;;;;5121137;28;20210;-55
2022/05/05 00:32:02;;;;;;;2.33;2.22;;;;;;;;;;5120939;28;20203;-55
2022/05/05 00:34:30;;;;;;;2.38;2.20;;;;;;;;;;5121059;28;20195;-55
2022/05/05 00:36:57;;;;;;;2.60;2.40;;;;;;;;;;5120959;28;20491;-55
2022/05/05 00:39:25;;;;;;;2.30;2.20;;;;;;;;;;5120516;28;20239;-55
2022/05/05 00:41:52;;;;;;;2.17;2.08;;;;;;;;;;5120826;28;20202;-55
2022/05/05 00:44:21;;;;;;;2.10;2.00;;;;;;;;;;5120670;28;20227;-55
2022/05/05 00:46:49;;;;;;;2.17;2.08;;;;;;;;;;5120565;28;20214;-55
2022/05/05 00:49:16;;;;;;;2.30;2.20;;;;;;;;;;5120630;28;20486;-55
2022/05/05 00:51:44;;;;;;;2.30;2.20;;;;;;;;;;5120793;28;20203;-55
2022/05/05 00:54:11;;;;;;;2.38;2.28;;;;;;;;;;5120550;28;20199;-55
2022/05/05 00:56:39;;;;;;;2.15;2.05;;;;;;;;;;5120516;28;20203;-55
2022/05/05 00:59:06;;;;;;;2.42;2.33;;;;;;;;;;5120850;28;20547;-55
2022/05/05 01:01:35;;;;;;;2.13;2.03;;;;;;;;;;5120329;28;20203;-55
2022/05/05 01:04:03;;;;;;;2.10;2.00;;;;;;;;;;5120883;28;20227;-55
2022/05/05 01:06:31;;;;;;;2.30;2.20;;;;;;;;;;5120364;28;20207;-55
2022/05/05 01:08:58;;;;;;;2.10;2.00;;;;;;;;;;5120804;28;20469;-55
2022/05/05 01:11:28;;;;;;;2.30;2.20;;;;;;;;;;5120667;28;20218;-55
2022/05/05 01:13:56;;;;;;;2.30;2.20;;;;;;;;;;5120787;28;20198;-55
2022/05/05 01:16:23;;;;;;;2.20;2.10;;;;;;;;;;5120173;28;20210;-55
2022/05/05 01:18:55;;;;;;;2.33;2.22;;;;;;;;;;5120295;28;20209;-55
2022/05/05 01:21:24;;;;;;;2.05;1.95;;;;;;;;;;5120266;28;20268;-55
2022/05/05 01:23:52;;;;;;;2.38;2.28;;;;;;;;;;5120072;28;20625;-55
2022/05/05 01:29:05;;;;;;;2.28;2.17;;;;;;;;;;5119767;28;20263;-55
2022/05/05 01:31:32;;;;;;;2.30;2.20;;;;;;;;;;5120699;28;20203;-55
2022/05/05 01:34:00;;;;;;;2.08;1.98;;;;;;;;;;5120027;28;20471;-54
2022/05/05 01:36:28;;;;;;;2.10;2.00;;;;;;;;;;5120243;28;20195;-54
2022/05/05 01:38:56;;;;;;;1.83;1.73;;;;;;;;;;5119683;28;20495;-55
2022/05/05 01:41:23;;;;;;;2.20;2.10;;;;;;;;;;5119276;28;20198;-55
2022/05/05 01:43:51;;;;;;;2.33;2.22;;;;;;;;;;5119417;28;20227;-55
2022/05/05 01:46:18;;;;;;;2.00;1.90;;;;;;;;;;5119639;28;20229;-54
2022/05/05 01:48:46;;;;;;;2.95;1.92;;;;;;;;;;5119613;28;20748;-55
2022/05/05 01:51:13;;;;;;;2.17;2.03;;;;;;;;;;5119879;28;20298;-54
2022/05/05 01:53:42;;;;;;;3.85;2.47;;;;;;;;;;5119956;28;20199;-55
2022/05/05 01:56:11;;;;;;;4.18;2.40;;;;;;;;;;5119266;27;20586;-55
2022/05/05 01:58:41;;;;;;;3.15;2.13;;;;;;;;;;5119159;28;20217;-54
2022/05/05 02:01:09;;;;;;;3.33;2.20;;;;;;;;;;5119283;28;20234;-54
2022/05/05 02:03:36;;;;;;;2.22;2.03;;;;;;;;;;5119021;28;20317;-54
2022/05/05 02:06:04;;;;;;;4.32;2.05;;;;;;;;;;5119241;28;20213;-54
2022/05/05 02:08:32;;;;;;;2.42;2.22;;;;;;;;;;5118628;28;20230;-55
2022/05/05 02:11:01;;;;;;;2.22;1.92;;;;;;;;;;5118472;28;20214;-55
2022/05/05 02:13:29;;;;;;;2.38;2.17;;;;;;;;;;5119191;28;20569;-54
2022/05/05 02:15:56;;;;;;;2.20;2.00;;;;;;;;;;5119530;28;20230;-54
2022/05/05 02:18:23;;;;;;;1.98;1.88;;;;;;;;;;5119055;28;20249;-55
2022/05/05 02:20:51;;;;;;;3.00;1.83;;;;;;;;;;5119171;28;20202;-54
2022/05/05 02:23:18;;;;;;;1.98;1.88;;;;;;;;;;5118936;28;20227;-54
2022/05/05 02:25:46;;;;;;;2.15;2.03;;;;;;;;;;5118801;28;20210;-55
2022/05/05 02:28:14;;;;;;;3.00;2.03;;;;;;;;;;5119006;28;20296;-55
2022/05/05 02:30:42;;;;;;;2.30;2.10;;;;;;;;;;5119243;28;20207;-54
2022/05/05 02:33:09;;;;;;;2.35;2.10;;;;;;;;;;5119303;28;20203;-54
2022/05/05 02:35:37;;;;;;;2.05;1.85;;;;;;;;;;5118976;28;20215;-54
2022/05/05 02:40:50;;;;;;;2.00;1.90;;;;;;;;;;5118747;28;20194;-54
2022/05/05 02:43:18;;;;;;;1.88;1.77;;;;;;;;;;5118900;28;20219;-54
2022/05/05 02:45:46;;;;;;;2.10;1.90;;;;;;;;;;5118862;28;20202;-55
2022/05/05 02:48:13;;;;;;;1.92;1.83;;;;;;;;;;5118913;28;20222;-55
2022/05/05 02:50:40;;;;;;;2.08;1.90;;;;;;;;;;5118781;28;20209;-55
2022/05/05 02:54:47;;;;;;;2.00;1.90;;;;;;;;;;5118996;28;20203;-55
2022/05/05 02:55:55;;;;;;;2.00;1.90;;;;;;;;;;5118892;28;20562;-55
2022/05/05 02:58:23;;;;;;;2.40;2.20;;;;;;;;;;5118819;28;20203;-55
2022/05/05 03:00:51;;;;;;;1.98;1.88;;;;;;;;;;5118841;28;20476;-55
2022/05/05 03:03:18;;;;;;;2.10;1.95;;;;;;;;;;5118782;28;20476;-55
2022/05/05 03:05:46;;;;;;;2.65;2.28;;;;;;;;;;5118824;28;20211;-55
2022/05/05 03:08:13;;;;;;;2.00;1.90;;;;;;;;;;5118842;28;20213;-55
2022/05/05 03:10:41;;;;;;;1.90;1.80;;;;;;;;;;5118470;28;20215;-55
2022/05/05 03:13:08;;;;;;;1.95;1.85;;;;;;;;;;5118931;28;20203;-55
2022/05/05 03:15:37;;;;;;;2.35;2.10;;;;;;;;;;5118465;28;20206;-55
2022/05/05 03:18:04;;;;;;;2.15;1.80;;;;;;;;;;5118577;28;20203;-55
2022/05/05 03:20:31;;;;;;;2.17;2.08;;;;;;;;;;5118759;28;20284;-55
2022/05/05 03:22:59;;;;;;;2.28;2.10;;;;;;;;;;5122157;28;20203;-56
2022/05/05 03:25:26;;;;;;;2.30;2.10;;;;;;;;;;5122203;28;20219;-55
2022/05/05 03:27:54;;;;;;;2.40;2.20;;;;;;;;;;5122236;28;20252;-55
2022/05/05 03:30:21;;;;;;;2.20;2.10;;;;;;;;;;5121496;28;20556;-55
2022/05/05 03:32:50;;;;;;;2.10;2.00;;;;;;;;;;5122392;28;20207;-55
2022/05/05 03:35:18;;;;;;;2.47;2.28;;;;;;;;;;5122651;28;20712;-55
2022/05/05 03:37:46;;;;;;;2.05;1.95;;;;;;;;;;5122422;27;20268;-55
2022/05/05 03:40:13;;;;;;;2.45;2.10;;;;;;;;;;5121732;28;20317;-55
2022/05/05 03:42:41;;;;;;;2.20;2.05;;;;;;;;;;5121970;28;20590;-55
2022/05/05 03:45:08;;;;;;;2.25;2.13;;;;;;;;;;5121501;28;20237;-55
2022/05/05 03:47:36;;;;;;;2.17;1.98;;;;;;;;;;5121790;28;20210;-55
2022/05/05 03:50:05;;;;;;;2.10;2.00;;;;;;;;;;5121678;28;20210;-55
2022/05/05 03:52:32;;;;;;;2.28;2.15;;;;;;;;;;5121650;28;20207;-55
2022/05/05 03:55:00;;;;;;;2.28;2.17;;;;;;;;;;5120383;28;20229;-55
2022/05/05 03:57:27;;;;;;;2.05;1.95;;;;;;;;;;5120487;28;20195;-55
2022/05/05 03:59:55;;;;;;;2.08;1.98;;;;;;;;;;5120623;28;20246;-55
2022/05/05 04:02:22;;;;;;;2.33;2.13;;;;;;;;;;5120823;28;20211;-55
2022/05/05 04:04:50;;;;;;;2.00;1.90;;;;;;;;;;5120649;28;20650;-55
2022/05/05 04:07:19;;;;;;;2.58;2.38;;;;;;;;;;5121287;28;20261;-55
2022/05/05 04:09:46;;;;;;;2.10;2.00;;;;;;;;;;5120814;28;20210;-55
2022/05/05 04:12:13;;;;;;;2.45;2.25;;;;;;;;;;5121476;28;20203;-55
2022/05/05 04:14:41;;;;;;;2.38;2.22;;;;;;;;;;5120782;28;20195;-55
2022/05/05 04:17:09;;;;;;;2.40;2.20;;;;;;;;;;5120796;28;20233;-55
2022/05/05 04:19:36;;;;;;;2.42;2.30;;;;;;;;;;5120852;28;20194;-55
2022/05/05 04:22:03;;;;;;;3.58;2.13;;;;;;;;;;5120087;28;20202;-55
2022/05/05 04:24:32;;;;;;;2.45;2.20;;;;;;;;;;5120194;28;20227;-55
2022/05/05 04:26:59;;;;;;;1.98;1.88;;;;;;;;;;5120003;28;20319;-55
2022/05/05 04:29:27;;;;;;;2.55;2.35;;;;;;;;;;5120123;28;20213;-55
2022/05/05 04:31:54;;;;;;;2.33;2.13;;;;;;;;;;5119895;28;20582;-55
2022/05/05 04:34:22;;;;;;;2.40;2.20;;;;;;;;;;5120332;28;20199;-55
2022/05/05 04:36:50;;;;;;;2.20;2.10;;;;;;;;;;5119382;28;20198;-55
2022/05/05 04:39:17;;;;;;;2.13;2.03;;;;;;;;;;5119972;28;20329;-55
2022/05/05 04:41:46;;;;;;;2.00;1.90;;;;;;;;;;5119257;28;20620;-55
2022/05/05 04:44:14;;;;;;;2.20;2.10;;;;;;;;;;5119214;28;20227;-55
2022/05/05 04:46:41;;;;;;;2.40;2.20;;;;;;;;;;5118788;28;20195;-55
2022/05/05 04:49:09;;;;;;;2.90;2.15;;;;;;;;;;5119234;28;20198;-55
2022/05/05 04:51:36;;;;;;;2.00;1.90;;;;;;;;;;5119327;28;20264;-55
2022/05/05 04:54:03;;;;;;;2.25;2.10;;;;;;;;;;5119409;28;20520;-55
2022/05/05 04:56:31;;;;;;;2.30;2.20;;;;;;;;;;5118852;28;20203;-55
2022/05/05 04:59:00;;;;;;;2.10;2.00;;;;;;;;;;5117305;28;20202;-55
2022/05/05 05:01:27;;;;;;;2.10;2.00;;;;;;;;;;5117317;28;20574;-55
2022/05/05 05:03:55;;;;;;;2.20;2.00;;;;;;;;;;5117545;28;20203;-55
2022/05/05 05:06:22;;;;;;;2.33;2.13;;;;;;;;;;5117381;28;20203;-55
2022/05/05 05:08:50;;;;;;;2.10;2.00;;;;;;;;;;5116650;28;20202;-55
2022/05/05 05:11:17;;;;;;;2.17;2.08;;;;;;;;;;5116741;28;20203;-55
2022/05/05 05:13:44;;;;;;;2.47;2.38;;;;;;;;;;5116967;28;20213;-55
2022/05/05 05:16:13;;;;;;;2.38;2.17;;;;;;;;;;5117009;28;20203;-55
2022/05/05 05:18:40;;;;;;;2.58;2.38;;;;;;;;;;5116816;28;20202;-55
2022/05/05 05:21:08;;;;;;;2.30;2.20;;;;;;;;;;5117075;28;20210;-55
2022/05/05 05:23:35;;;;;;;2.15;2.05;;;;;;;;;;5117967;28;20629;-55
2022/05/05 05:26:03;;;;;;;2.70;2.30;;;;;;;;;;5116493;28;20230;-55
2022/05/05 05:28:30;;;;;;;2.00;1.90;;;;;;;;;;5116553;28;20203;-55
2022/05/05 05:30:57;;;;;;;2.40;2.20;;;;;;;;;;5116709;28;20213;-55
2022/05/05 05:33:26;;;;;;;2.35;2.25;;;;;;;;;;5116535;28;20199;-55
2022/05/05 05:35:53;;;;;;;2.38;2.17;;;;;;;;;;5116824;28;20290;-55
2022/05/05 05:38:21;;;;;;;2.25;2.15;;;;;;;;;;5116728;28;20198;-55
2022/05/05 05:40:48;;;;;;;2.00;1.90;;;;;;;;;;5116983;28;20210;-55
2022/05/05 05:43:16;;;;;;;2.03;1.92;;;;;;;;;;5117127;28;20203;-55
2022/05/05 05:45:44;;;;;;;2.22;2.13;;;;;;;;;;5116413;28;20230;-55
2022/05/05 05:48:11;;;;;;;2.20;2.10;;;;;;;;;;5117248;28;20203;-55
2022/05/05 05:50:40;;;;;;;1.92;1.83;;;;;;;;;;5115885;28;20487;-55
2022/05/05 05:53:08;;;;;;;2.40;2.20;;;;;;;;;;5116336;28;20613;-55
2022/05/05 05:55:36;;;;;;;2.40;2.20;;;;;;;;;;5117104;27;20199;-55
2022/05/05 05:58:03;;;;;;;2.28;2.17;;;;;;;;;;5116917;28;20217;-55
2022/05/05 06:00:32;;;;;;;2.03;1.92;;;;;;;;;;5114963;28;20217;-55
2022/05/05 06:05:46;;;;;;;2.05;1.90;;;;;;;;;;5115661;28;20245;-55
2022/05/05 06:08:13;;;;;;;2.25;2.15;;;;;;;;;;5115435;28;20554;-55
2022/05/05 06:10:41;;;;;;;2.60;2.40;;;;;;;;;;5113548;28;20310;-55
2022/05/05 06:13:09;;;;;;;2.30;1.98;;;;;;;;;;5115476;28;20195;-55
2022/05/05 06:15:37;;;;;;;2.38;2.20;;;;;;;;;;5114754;28;20199;-54
2022/05/05 06:18:04;;;;;;;2.15;2.05;;;;;;;;;;5114777;28;20203;-55
2022/05/05 06:20:32;;;;;;;2.30;2.20;;;;;;;;;;5113382;28;20209;-55
2022/05/05 06:23:01;;;;;;;2.13;2.03;;;;;;;;;;5114640;28;20210;-54
2022/05/05 06:25:29;;;;;;;2.35;2.25;;;;;;;;;;5114678;28;20313;-54
2022/05/05 06:27:58;;;;;;;2.30;2.20;;;;;;;;;;5114310;28;20195;-54
2022/05/05 06:30:25;;;;;;;2.30;2.20;;;;;;;;;;5115500;28;20199;-54
2022/05/05 06:32:53;;;;;;;2.00;1.90;;;;;;;;;;5114771;28;20214;-54
2022/05/05 06:35:20;;;;;;;2.17;2.08;;;;;;;;;;5113445;28;20221;-54
2022/05/05 06:37:50;;;;;;;2.33;2.20;;;;;;;;;;5115407;28;20302;-54
2022/05/05 06:40:19;;;;;;;2.22;2.13;;;;;;;;;;5115134;28;20574;-54
2022/05/05 06:42:48;;;;;;;2.17;2.08;;;;;;;;;;5114161;28;20290;-55
2022/05/05 06:45:16;;;;;;;2.20;2.10;;;;;;;;;;5114240;28;20276;-55
2022/05/05 06:47:43;;;;;;;2.28;2.08;;;;;;;;;;5113674;28;20226;-55
2022/05/05 06:50:11;;;;;;;2.00;1.80;;;;;;;;;;5114686;28;20199;-55
2022/05/05 06:52:38;;;;;;;1.98;1.88;;;;;;;;;;5114803;28;20423;-55
2022/05/05 06:55:06;;;;;;;1.85;1.75;;;;;;;;;;5114848;28;20202;-54
2022/05/05 06:57:36;;;;;;;2.08;1.95;;;;;;;;;;5118124;28;20621;-55
2022/05/05 07:00:03;;;;;;;2.00;1.90;;;;;;;;;;5118821;28;20297;-55
2022/05/05 07:02:30;;;;;;;2.20;2.10;;;;;;;;;;5118292;28;20202;-55
2022/05/05 07:07:43;;;;;;;1.85;1.75;;;;;;;;;;5118755;28;20243;-55
2022/05/05 07:12:56;;;;;;;1.90;1.80;;;;;;;;;;5118976;28;20248;-55
2022/05/05 07:15:24;;;;;;;2.10;1.90;;;;;;;;;;5119405;28;20261;-55
2022/05/05 07:17:51;;;;;;;1.90;1.80;;;;;;;;;;5117757;28;20305;-55
2022/05/05 07:20:19;;;;;;;1.88;1.77;;;;;;;;;;5117787;28;20221;-55
2022/05/05 07:22:47;;;;;;;2.22;2.13;;;;;;;;;;5117143;28;20803;-55
2022/05/05 07:25:15;;;;;;;2.22;2.03;;;;;;;;;;5117397;28;20227;-55
2022/05/05 07:27:42;;;;;;;2.00;1.90;;;;;;;;;;5117733;28;20203;-55
2022/05/05 07:30:12;;;;;;;2.15;2.05;;;;;;;;;;5118210;28;20588;-55
2022/05/05 07:32:39;;;;;;;2.28;2.13;;;;;;;;;;5120047;28;20203;-55
2022/05/05 07:35:07;;;;;;;2.17;2.00;;;;;;;;;;5119552;28;20580;-55
2022/05/05 07:37:36;;;;;;;2.00;1.90;;;;;;;;;;5119289;28;20206;-55
2022/05/05 07:40:04;;;;;;;2.15;1.95;;;;;;;;;;5118136;28;20493;-55
2022/05/05 07:42:31;;;;;;;1.90;1.80;;;;;;;;;;5117318;28;20195;-55
2022/05/05 07:44:58;;;;;;;1.80;1.70;;;;;;;;;;5118976;28;20253;-55
2022/05/05 07:47:27;;;;;;;4.15;1.98;;;;;;;;;;5119518;28;20202;-55
2022/05/05 07:49:54;;;;;;;2.33;2.22;;;;;;;;;;5117272;28;20203;-55
2022/05/05 07:52:22;;;;;;;2.25;2.10;;;;;;;;;;5116713;28;20207;-55
2022/05/05 07:54:49;;;;;;;2.45;1.85;;;;;;;;;;5117732;28;20226;-54
2022/05/05 07:57:20;;;;;;;2.10;2.00;;;;;;;;;;5116751;28;20207;-55
2022/05/05 07:59:48;;;;;;;2.10;2.00;;;;;;;;;;5118608;28;20601;-54
2022/05/05 08:02:16;;;;;;;2.30;2.10;;;;;;;;;;5118126;28;20203;-55
2022/05/05 08:04:45;;;;;;;2.20;2.08;;;;;;;;;;5117132;28;20211;-55
2022/05/05 08:07:13;;;;;;;2.03;1.92;;;;;;;;;;5114869;28;20195;-54
2022/05/05 08:09:40;;;;;;;2.40;2.20;;;;;;;;;;5117923;28;20195;-55
2022/05/05 08:12:08;;;;;;;1.95;1.85;;;;;;;;;;5118577;28;20202;-54
2022/05/05 08:14:36;;;;;;;2.35;2.15;;;;;;;;;;5117804;28;20203;-54
2022/05/05 08:17:03;;;;;;;2.10;1.90;;;;;;;;;;5118438;28;20506;-55
2022/05/05 08:19:31;;;;;;;2.20;2.00;;;;;;;;;;5118485;28;20578;-54
2022/05/05 08:22:00;;;;;;;2.00;1.90;;;;;;;;;;5118343;28;20350;-55
2022/05/05 08:30:02;;;;;;;2.58;2.38;;;;;;;;;;5117895;28;20198;-55
2022/05/05 08:32:30;;;;;;;2.30;2.10;;;;;;;;;;5118086;28;20248;-54
2022/05/05 08:34:57;;;;;;;2.35;2.25;;;;;;;;;;5116261;28;20195;-55
2022/05/05 08:37:26;;;;;;;2.42;2.22;;;;;;;;;;5117944;28;20210;-55
2022/05/05 08:39:53;;;;;;;2.35;2.17;;;;;;;;;;5117099;28;20614;-55
2022/05/05 08:42:21;;;;;;;2.70;2.50;;;;;;;;;;5118231;28;20218;-55
2022/05/05 08:44:49;;;;;;;2.70;2.50;;;;;;;;;;5117760;28;20594;-55
2022/05/05 08:47:18;;;;;;;2.72;2.53;;;;;;;;;;5117194;28;20203;-55
2022/05/05 08:49:45;;;;;;;2.70;2.50;;;;;;;;;;5117705;28;20206;-55
2022/05/05 08:52:14;;;;;;;3.28;2.80;;;;;;;;;;5116576;28;20232;-56
2022/05/05 08:54:43;;;;;;;2.78;2.58;;;;;;;;;;5117530;28;20194;-55
2022/05/05 08:57:11;;;;;;;3.05;2.85;;;;;;;;;;5116956;28;20209;-55
2022/05/05 08:59:39;;;;;;;3.55;3.08;;;;;;;;;;5118332;28;20210;-55
2022/05/05 09:02:07;;;;;;;3.55;3.30;;;;;;;;;;5117573;28;20195;-54
2022/05/05 09:04:34;;;;;;;3.33;3.13;;;;;;;;;;5117990;28;20760;-55
2022/05/05 09:07:02;;;;;;;3.03;2.83;;;;;;;;;;5117157;28;20223;-55
2022/05/05 09:09:33;;;;;;;3.00;2.80;;;;;;;;;;5117599;28;20202;-55
2022/05/05 09:12:12;;;;;;;2.97;2.78;;;;;;;;;;5117579;28;20593;-55
2022/05/05 09:14:41;;;;;;;3.10;2.80;;;;;;;;;;5118163;28;20248;-55
2022/05/05 09:17:10;;;;;;;3.50;3.20;;;;;;;;;;5118144;28;20199;-55
2022/05/05 09:19:38;;;;;;;3.22;3.03;;;;;;;;;;5117202;27;20518;-55
2022/05/05 09:22:07;;;;;;;3.22;3.03;;;;;;;;;;5117603;27;20225;-54
2022/05/05 09:24:40;;;;;;;4.25;3.45;;;;;;;;;;5116425;28;20301;-54
2022/05/05 09:27:26;;;;;;;3.25;2.95;;;;;;;;;;5110231;28;20219;-55
2022/05/05 09:30:07;;;;;;;3.80;3.50;;;;;;;;;;5096785;28;20205;-54
2022/05/05 09:32:35;;;;;;;3.70;3.40;;;;;;;;;;5096077;28;20276;-55
2022/05/05 09:35:03;;;;;;;3.38;3.08;;;;;;;;;;5095882;28;20200;-55
2022/05/05 09:37:31;;;;;;;3.60;3.30;;;;;;;;;;5096651;28;20268;-54
2022/05/05 09:39:59;;;;;;;4.15;3.75;;;;;;;;;;5095204;28;20296;-55
2022/05/05 09:42:38;;;;;;;11.32;7.40;;;;;;;;;;5096673;28;20203;-55
2022/05/05 09:45:18;;;;;;;20.55;11.63;;;;;;;;;;5096587;28;20547;-55
2022/05/05 09:47:46;;;;;;;14.10;10.00;;;;;;;;;;5096758;28;20257;-55
2022/05/05 09:50:15;;;;;;;18.25;10.25;;;;;;;;;;5097263;28;20218;-55
2022/05/05 09:58:21;;;;;;;15.35;10.10;;;;;;;;;;5094632;28;20658;-54
2022/05/05 10:00:55;;;;;;;14.43;9.98;;;;;;;;;;5095912;28;20207;-55
2022/05/05 10:06:12;;;;;;;14.55;9.65;;;;;;;;;;5085663;28;20560;-55
2022/05/05 10:08:42;;;;;;;15.57;9.85;;;;;;;;;;5095739;28;20200;-55
2022/05/05 10:11:09;;;;;;;15.73;9.48;;;;;;;;;;5095779;28;20837;-54
2022/05/05 10:13:39;;;;;;;15.50;9.35;;;;;;;;;;5096555;28;20583;-55
2022/05/05 10:16:08;;;;;;;14.73;9.63;;;;;;;;;;5096203;28;20319;-55
2022/05/05 10:18:38;;;;;;;13.48;9.05;;;;;;;;;;5095386;28;20204;-56
2022/05/05 10:21:07;;;;;;;13.50;9.32;;;;;;;;;;5095458;28;20200;-55
2022/05/05 10:23:40;;;;;;;16.40;9.95;;;;;;;;;;5094695;28;20203;-56
2022/05/05 10:26:09;;;;;;;14.88;9.98;;;;;;;;;;5095137;28;20234;-55
2022/05/05 10:28:42;;;;;;;12.55;9.55;;;;;;;;;;5095359;28;20211;-55
2022/05/05 10:31:24;;;;;;;13.77;8.93;;;;;;;;;;5094847;28;20208;-55
2022/05/05 10:34:01;;;;;;;14.38;9.75;;;;;;;;;;5082470;28;20203;-55
2022/05/05 10:36:29;;;;;;;12.45;8.40;;;;;;;;;;5094839;28;20203;-55
2022/05/05 10:38:56;;;;;;;13.40;9.43;;;;;;;;;;5093831;28;20346;-55
2022/05/05 10:41:39;;;;;;;12.27;9.27;;;;;;;;;;5094634;28;20200;-55
2022/05/05 10:44:24;;;;;;;14.75;9.48;;;;;;;;;;5095115;28;20200;-55
2022/05/05 10:46:55;;;;;;;11.32;8.57;;;;;;;;;;5095464;28;20239;-55
2022/05/05 10:49:38;;;;;;;13.13;9.63;;;;;;;;;;5094922;28;20233;-55
2022/05/05 10:52:20;;;;;;;13.32;9.35;;;;;;;;;;5092542;28;20717;-55
2022/05/05 10:54:49;;;;;;;13.30;9.20;;;;;;;;;;5081201;28;20207;-55
2022/05/05 10:57:35;;;;;;;12.13;9.10;;;;;;;;;;5094572;28;20616;-55
2022/05/05 11:00:11;;;;;;;11.07;9.00;;;;;;;;;;5093925;28;20209;-55
2022/05/05 11:02:40;;;;;;;11.82;8.93;;;;;;;;;;5095032;28;20207;-55
2022/05/05 11:05:28;;;;;;;11.40;8.57;;;;;;;;;;5094825;28;20745;-55
2022/05/05 11:07:55;;;;;;;11.73;8.35;;;;;;;;;;5094046;28;20235;-55
2022/05/05 11:10:41;;;;;;;12.27;8.55;;;;;;;;;;5094506;28;20306;-55
2022/05/05 11:13:08;;;;;;;10.98;8.57;;;;;;;;;;5095044;28;20210;-55
2022/05/05 11:23:59;;;;;;;12.15;8.52;;;;;;;;;;5104754;28;20194;-55
2022/05/05 11:26:26;;;;;;;12.40;8.02;;;;;;;;;;5115063;28;20233;-55
2022/05/05 11:28:58;;;;;;;9.90;8.55;;;;;;;;;;5115681;28;20203;-55
2022/05/05 11:31:28;;;;;;;9.88;8.02;;;;;;;;;;5114927;28;20195;-54
2022/05/05 11:33:56;;;;;;;9.73;7.40;;;;;;;;;;5114791;28;20294;-55
2022/05/05 11:36:26;;;;;;;10.05;7.90;;;;;;;;;;5113975;28;20210;-55
2022/05/05 11:38:54;;;;;;;9.15;7.75;;;;;;;;;;5114584;28;20514;-55
2022/05/05 11:41:21;;;;;;;10.13;7.57;;;;;;;;;;5114107;28;20203;-54
2022/05/05 11:46:38;;;;;;;8.73;7.68;;;;;;;;;;5116671;28;20241;-54
2022/05/05 11:49:06;;;;;;;10.10;8.02;;;;;;;;;;5118240;28;20737;-54
2022/05/05 11:51:34;;;;;;;10.32;7.85;;;;;;;;;;5118498;28;20209;-55
2022/05/05 11:54:02;;;;;;;9.43;7.75;;;;;;;;;;5117793;28;20213;-55
2022/05/05 11:56:30;;;;;;;9.13;7.63;;;;;;;;;;5118450;28;20198;-55
2022/05/05 12:01:45;;;;;;;8.95;7.72;;;;;;;;;;5117482;28;20190;-55
2022/05/05 12:04:14;;;;;;;8.77;7.40;;;;;;;;;;5117361;28;20646;-55
2022/05/05 12:06:42;;;;;;;7.90;6.75;;;;;;;;;;5118496;28;20888;-55
2022/05/05 12:09:10;;;;;;;7.93;7.13;;;;;;;;;;5115783;28;20199;-55
2022/05/05 12:11:38;;;;;;;9.07;7.60;;;;;;;;;;5115453;28;20203;-55
2022/05/05 12:14:07;;;;;;;8.63;7.60;;;;;;;;;;5116859;28;20195;-55
2022/05/05 12:16:35;;;;;;;7.93;7.05;;;;;;;;;;5116280;28;20587;-55
2022/05/05 12:19:12;;;;;;;7.75;7.05;;;;;;;;;;5114241;28;20608;-55
2022/05/05 12:21:39;;;;;;;10.50;7.53;;;;;;;;;;5116028;27;20210;-55
2022/05/05 12:24:08;;;;;;;7.20;6.50;;;;;;;;;;5114039;28;20194;-55
2022/05/05 12:26:37;;;;;;;9.05;7.03;;;;;;;;;;5114953;28;20284;-56
2022/05/05 12:29:14;;;;;;;7.93;7.03;;;;;;;;;;5113702;28;20201;-55
2022/05/05 12:31:41;;;;;;;8.77;7.53;;;;;;;;;;5114589;28;20203;-55
2022/05/05 12:34:22;;;;;;;7.63;6.82;;;;;;;;;;5114200;27;20195;-55
2022/05/05 12:36:50;;;;;;;8.02;7.20;;;;;;;;;;5114744;28;20206;-56
2022/05/05 12:39:20;;;;;;;8.13;6.90;;;;;;;;;;5114635;28;20245;-55
2022/05/05 12:42:08;;;;;;;8.85;6.82;;;;;;;;;;5114592;28;20211;-55
2022/05/05 12:44:36;;;;;;;7.70;6.20;;;;;;;;;;5109844;28;20207;-56
2022/05/05 12:47:04;;;;;;;8.10;6.57;;;;;;;;;;5115125;28;20834;-56
2022/05/05 12:49:41;;;;;;;8.38;6.53;;;;;;;;;;5115962;28;20202;-55
2022/05/05 12:59:36;;;;;;;7.38;6.68;;;;;;;;;;5116841;28;20210;-55
2022/05/05 13:00:29;;;;;;;8.02;6.80;;;;;;;;;;5115263;28;20210;-55
2022/05/05 13:02:56;;;;;;;6.93;6.32;;;;;;;;;;5115113;28;20285;-55
2022/05/05 13:05:25;;;;;;;6.65;6.05;;;;;;;;;;5116041;28;20582;-56
2022/05/05 13:07:53;;;;;;;6.65;6.05;;;;;;;;;;5113139;27;20219;-55
2022/05/05 13:10:21;;;;;;;6.88;6.18;;;;;;;;;;5113196;28;20606;-55
2022/05/05 13:12:48;;;;;;;7.15;6.38;;;;;;;;;;5114654;28;20209;-55
2022/05/05 13:15:15;;;;;;;6.60;5.97;;;;;;;;;;5113835;28;20503;-55
2022/05/05 13:17:43;;;;;;;6.90;6.22;;;;;;;;;;5113682;28;20279;-55
2022/05/05 13:20:11;;;;;;;6.32;5.82;;;;;;;;;;5113724;28;20207;-55
2022/05/05 13:22:40;;;;;;;7.00;6.30;;;;;;;;;;5113886;27;20199;-55
2022/05/05 13:25:08;;;;;;;6.63;6.03;;;;;;;;;;5115088;28;20206;-55
2022/05/05 13:27:35;;;;;;;6.63;5.97;;;;;;;;;;5114308;28;20516;-55
2022/05/05 13:30:02;;;;;;;6.60;6.00;;;;;;;;;;5115167;28;20203;-55
2022/05/05 13:32:30;;;;;;;6.70;6.20;;;;;;;;;;5116328;28;20503;-55
2022/05/05 13:34:58;;;;;;;6.72;6.13;;;;;;;;;;5116523;28;20205;-55
2022/05/05 13:37:25;;;;;;;6.47;5.95;;;;;;;;;;5116103;28;20211;-55
2022/05/05 13:39:54;;;;;;;6.53;5.95;;;;;;;;;;5116387;28;20234;-55
2022/05/05 13:42:21;;;;;;;6.88;6.28;;;;;;;;;;5116534;28;20720;-55
2022/05/05 13:44:48;;;;;;;6.40;5.80;;;;;;;;;;5115234;28;20203;-56
2022/05/05 13:47:16;;;;;;;6.68;6.07;;;;;;;;;;5115685;28;20711;-55
2022/05/05 13:49:44;;;;;;;6.30;5.80;;;;;;;;;;5115628;28;20203;-55
2022/05/05 13:52:11;;;;;;;6.15;5.65;;;;;;;;;;5115990;28;20203;-56
2022/05/05 13:54:40;;;;;;;6.53;6.00;;;;;;;;;;5115666;28;20210;-55
2022/05/05 13:57:08;;;;;;;6.50;5.90;;;;;;;;;;5115064;28;20234;-55
2022/05/05 13:59:36;;;;;;;5.80;5.35;;;;;;;;;;5115540;28;20208;-55
2022/05/05 14:02:04;;;;;;;6.75;6.15;;;;;;;;;;5114687;28;20195;-55
2022/05/05 14:04:31;;;;;;;5.75;5.35;;;;;;;;;;5114671;28;20690;-55
2022/05/05 14:07:00;;;;;;;6.40;5.90;;;;;;;;;;5114344;28;20228;-55
2022/05/05 14:12:16;;;;;;;6.60;6.10;;;;;;;;;;5114431;28;20198;-55
2022/05/05 14:14:44;;;;;;;6.40;5.90;;;;;;;;;;5114794;28;20207;-55
2022/05/05 14:17:12;;;;;;;6.22;5.72;;;;;;;;;;5114924;28;20203;-55
2022/05/05 14:19:40;;;;;;;6.20;5.70;;;;;;;;;;5114382;28;20209;-56
2022/05/05 14:22:08;;;;;;;6.10;5.70;;;;;;;;;;5113908;28;20195;-55
2022/05/05 14:24:35;;;;;;;6.65;6.05;;;;;;;;;;5112866;28;20213;-56
2022/05/05 14:27:03;;;;;;;6.13;5.63;;;;;;;;;;5113233;28;20613;-55
2022/05/05 14:29:33;;;;;;;6.50;5.90;;;;;;;;;;5111583;28;20198;-55
2022/05/05 14:32:00;;;;;;;6.35;5.90;;;;;;;;;;5111625;28;20275;-55
2022/05/05 14:34:28;;;;;;;6.68;6.18;;;;;;;;;;5111060;28;20203;-55
2022/05/05 14:36:55;;;;;;;6.32;5.82;;;;;;;;;;5112748;28;20201;-55
2022/05/05 14:39:23;;;;;;;6.60;6.10;;;;;;;;;;5112188;28;20730;-56
2022/05/05 14:41:50;;;;;;;6.50;6.00;;;;;;;;;;5112801;28;20195;-55
2022/05/05 14:44:17;;;;;;;6.45;5.93;;;;;;;;;;5112401;28;20536;-56
2022/05/05 14:46:46;;;;;;;6.30;5.80;;;;;;;;;;5112205;28;20203;-55
2022/05/05 14:49:13;;;;;;;6.40;5.90;;;;;;;;;;5113157;28;20207;-55
2022/05/05 14:51:41;;;;;;;5.90;5.47;;;;;;;;;;5114425;28;20486;-55
2022/05/05 14:54:08;;;;;;;5.97;5.50;;;;;;;;;;5112209;28;20191;-55
2022/05/05 14:56:36;;;;;;;6.47;5.97;;;;;;;;;;5111122;28;20213;-55
2022/05/05 14:59:04;;;;;;;6.60;6.10;;;;;;;;;;5111855;28;20195;-55
2022/05/05 15:01:31;;;;;;;6.53;5.93;;;;;;;;;;5112445;28;20203;-56
2022/05/05 15:04:00;;;;;;;6.53;6.03;;;;;;;;;;5112760;28;20202;-55
2022/05/05 15:06:27;;;;;;;6.30;5.80;;;;;;;;;;5112548;28;20471;-55
2022/05/05 15:08:55;;;;;;;6.10;5.70;;;;;;;;;;5112143;28;20333;-55
2022/05/05 15:11:23;;;;;;;6.65;6.15;;;;;;;;;;5112233;28;20606;-55
2022/05/05 15:13:50;;;;;;;6.60;6.10;;;;;;;;;;5112472;28;20581;-55
2022/05/05 15:16:18;;;;;;;6.35;5.85;;;;;;;;;;5114416;28;20252;-56
2022/05/05 15:18:45;;;;;;;6.55;6.05;;;;;;;;;;5116090;27;20203;-56
2022/05/05 15:21:14;;;;;;;6.38;5.88;;;;;;;;;;5116775;28;20227;-55
2022/05/05 15:23:42;;;;;;;6.25;5.75;;;;;;;;;;5116006;28;20206;-55
2022/05/05 15:26:09;;;;;;;6.38;5.88;;;;;;;;;;5117557;28;20586;-55
2022/05/05 15:28:37;;;;;;;6.70;6.20;;;;;;;;;;5116628;28;20214;-55
2022/05/05 15:31:05;;;;;;;6.50;6.00;;;;;;;;;;5116062;28;20589;-55
2022/05/05 15:33:33;;;;;;;6.40;5.95;;;;;;;;;;5115488;28;20199;-55
2022/05/05 15:36:01;;;;;;;5.97;5.57;;;;;;;;;;5115252;28;20353;-55
2022/05/05 15:38:29;;;;;;;6.40;5.90;;;;;;;;;;5116127;28;20231;-55
2022/05/05 15:40:57;;;;;;;6.50;6.00;;;;;;;;;;5116245;28;20203;-56
2022/05/05 15:43:24;;;;;;;6.18;5.78;;;;;;;;;;5115856;28;20220;-55